createdAt,value
2022-09-14T00:01:37.026Z,14.93
2022-09-14T00:04:14.069Z,15.38
2022-09-14T00:06:42.475Z,11.10
2022-09-14T00:09:15.385Z,10.10
2022-09-14T00:11:43.062Z,7.35
2022-09-14T00:14:10.927Z,7.57
2022-09-14T00:16:41.441Z,5.88
2022-09-14T00:19:32.127Z,5.50
2022-09-14T00:22:00.562Z,5.18
2022-09-14T00:24:30.965Z,5.13
2022-09-14T00:26:59.250Z,5.25
2022-09-14T00:29:27.330Z,5.75
2022-09-14T00:31:55.190Z,6.03
2022-09-14T00:34:23.570Z,5.78
2022-09-14T00:36:52.782Z,6.30
2022-09-14T00:39:28.186Z,6.22
2022-09-14T00:41:56.003Z,6.45
2022-09-14T00:44:23.803Z,6.53
2022-09-14T00:46:57.220Z,6.43
2022-09-14T00:49:31.908Z,6.78
2022-09-14T00:52:14.774Z,6.85
2022-09-14T00:54:55.310Z,6.57
2022-09-14T00:57:24.482Z,6.68
2022-09-14T00:59:55.609Z,6.43
2022-09-14T01:02:27.305Z,6.43
2022-09-14T01:04:56.356Z,7.15
2022-09-14T01:07:39.030Z,6.75
2022-09-14T01:10:10.126Z,7.05
2022-09-14T01:12:55.629Z,6.93
2022-09-14T01:15:31.993Z,7.32
2022-09-14T01:18:03.911Z,7.55
2022-09-14T01:20:47.490Z,8.05
2022-09-14T01:23:38.399Z,8.40
2022-09-14T01:26:55.318Z,8.57
2022-09-14T01:29:45.823Z,8.75
2022-09-14T01:32:54.637Z,9.05
2022-09-14T01:35:22.427Z,9.43
2022-09-14T01:38:21.332Z,9.57
2022-09-14T01:40:51.089Z,9.98
2022-09-14T01:43:36.802Z,10.77
2022-09-14T01:46:16.424Z,10.35
2022-09-14T01:49:07.065Z,9.85
2022-09-14T01:52:20.916Z,11.02
2022-09-14T01:55:03.232Z,10.18
2022-09-14T01:57:42.801Z,10.20
2022-09-14T02:00:16.807Z,10.38
2022-09-14T02:03:15.963Z,10.90
2022-09-14T02:05:49.910Z,10.77
2022-09-14T02:08:18.099Z,11.07
2022-09-14T02:10:46.039Z,11.13
2022-09-14T02:13:13.907Z,11.60
2022-09-14T02:15:41.703Z,11.00
2022-09-14T02:18:09.534Z,11.65
2022-09-14T02:20:46.947Z,11.85
2022-09-14T02:23:14.990Z,13.93
2022-09-14T02:25:42.792Z,14.38
2022-09-14T02:28:10.391Z,15.50
2022-09-14T02:30:52.585Z,17.10
2022-09-14T02:33:36.153Z,19.23
2022-09-14T02:36:16.807Z,20.70
2022-09-14T02:39:11.849Z,20.50
2022-09-14T02:42:21.436Z,22.25
2022-09-14T02:45:25.981Z,22.08
2022-09-14T02:48:19.956Z,24.17
2022-09-14T02:51:08.927Z,23.65
2022-09-14T02:53:50.684Z,25.30
2022-09-14T02:56:20.276Z,26.45
2022-09-14T02:58:48.515Z,26.80
2022-09-14T03:01:20.071Z,26.60
2022-09-14T03:03:47.773Z,26.83
2022-09-14T03:06:16.175Z,26.65
2022-09-14T03:08:44.047Z,27.63
2022-09-14T03:11:12.372Z,26.75
2022-09-14T03:13:40.451Z,29.25
2022-09-14T03:16:10.813Z,29.77
2022-09-14T03:18:39.286Z,28.45
2022-09-14T03:21:15.703Z,28.63
2022-09-14T03:23:48.578Z,30.02
2022-09-14T03:26:22.519Z,30.40
2022-09-14T03:28:55.905Z,32.60
2022-09-14T03:31:25.128Z,34.67
2022-09-14T03:33:55.182Z,33.55
2022-09-14T03:36:23.633Z,32.08
2022-09-14T03:38:53.923Z,35.20
2022-09-14T03:41:22.994Z,34.30
2022-09-14T03:43:51.282Z,35.92
2022-09-14T03:46:22.168Z,35.70
2022-09-14T03:48:50.024Z,36.28
2022-09-14T03:51:18.239Z,38.17
2022-09-14T03:53:46.420Z,37.22
2022-09-14T03:56:17.555Z,37.50
2022-09-14T03:58:46.060Z,37.38
2022-09-14T04:01:18.262Z,39.85
2022-09-14T04:03:46.583Z,41.08
2022-09-14T04:06:16.058Z,39.75
2022-09-14T04:08:45.264Z,41.08
2022-09-14T04:11:22.256Z,40.17
2022-09-14T04:13:51.507Z,40.45
2022-09-14T04:16:21.083Z,40.22
2022-09-14T04:18:49.674Z,41.28
2022-09-14T04:21:21.945Z,40.65
2022-09-14T04:26:40.858Z,42.85
2022-09-14T04:29:10.563Z,42.45
2022-09-14T04:31:38.425Z,41.35
2022-09-14T04:34:06.848Z,44.28
2022-09-14T04:36:35.134Z,42.10
2022-09-14T04:39:04.135Z,44.08
2022-09-14T04:41:33.027Z,41.03
2022-09-14T04:44:02.422Z,43.13
2022-09-14T04:46:45.108Z,43.40
2022-09-14T04:49:15.599Z,42.72
2022-09-14T04:51:43.258Z,43.30
2022-09-14T04:54:13.460Z,44.88
2022-09-14T04:56:41.825Z,42.58
2022-09-14T04:59:09.608Z,44.03
2022-09-14T05:01:43.652Z,44.65
2022-09-14T05:04:12.498Z,43.75
2022-09-14T05:06:42.906Z,43.78
2022-09-14T05:09:18.524Z,42.95
2022-09-14T05:11:46.576Z,40.33
2022-09-14T05:14:14.776Z,43.33
2022-09-14T05:16:44.387Z,43.20
2022-09-14T05:19:15.359Z,42.42
2022-09-14T05:21:43.483Z,41.53
2022-09-14T05:24:16.909Z,38.28
2022-09-14T05:26:45.925Z,39.92
2022-09-14T05:29:17.387Z,36.75
2022-09-14T05:31:46.036Z,37.15
2022-09-14T05:34:16.794Z,35.45
2022-09-14T05:36:44.523Z,33.60
2022-09-14T05:39:12.410Z,33.65
2022-09-14T05:41:40.605Z,33.17
2022-09-14T05:44:08.562Z,31.33
2022-09-14T05:46:36.453Z,30.85
2022-09-14T05:49:04.465Z,29.75
2022-09-14T05:51:32.429Z,31.67
2022-09-14T05:54:00.661Z,30.98
2022-09-14T05:56:31.714Z,29.98
2022-09-14T05:59:00.460Z,30.20
2022-09-14T06:01:32.695Z,29.98
2022-09-14T06:04:02.518Z,29.80
2022-09-14T06:06:32.403Z,27.48
2022-09-14T06:09:00.637Z,27.33
2022-09-14T06:11:33.057Z,28.67
2022-09-14T06:14:00.877Z,27.77
2022-09-14T06:16:29.438Z,26.75
2022-09-14T06:18:58.675Z,26.65
2022-09-14T06:21:34.063Z,25.35
2022-09-14T06:24:02.883Z,24.02
2022-09-14T06:26:31.065Z,24.30
2022-09-14T06:28:58.879Z,23.75
2022-09-14T06:31:26.781Z,22.70
2022-09-14T06:33:54.972Z,22.42
2022-09-14T06:36:25.209Z,22.92
2022-09-14T06:38:53.639Z,21.98
2022-09-14T06:41:26.531Z,21.58
2022-09-14T06:43:57.448Z,22.13
2022-09-14T06:46:28.333Z,21.65
2022-09-14T06:49:03.522Z,22.08
2022-09-14T06:51:40.954Z,22.48
2022-09-14T06:54:10.457Z,22.95
2022-09-14T06:56:40.883Z,24.05
2022-09-14T06:59:11.480Z,24.25
2022-09-14T07:01:40.066Z,22.95
2022-09-14T07:04:08.552Z,23.92
2022-09-14T07:06:48.167Z,24.58
2022-09-14T07:09:17.729Z,24.02
2022-09-14T07:11:46.172Z,25.17
2022-09-14T07:14:13.863Z,24.73
2022-09-14T07:16:42.149Z,24.65
2022-09-14T07:19:14.786Z,25.60
2022-09-14T07:21:45.261Z,24.90
2022-09-14T07:24:15.013Z,24.88
2022-09-14T07:26:43.732Z,25.25
2022-09-14T07:29:17.015Z,25.17
2022-09-14T07:31:46.765Z,23.55
2022-09-14T07:34:15.213Z,24.67
2022-09-14T07:36:43.809Z,23.27
2022-09-14T07:39:14.998Z,23.90
2022-09-14T07:41:43.600Z,23.77
2022-09-14T07:44:15.334Z,22.67
2022-09-14T07:46:45.078Z,22.63
2022-09-14T07:49:14.141Z,22.75
2022-09-14T07:51:42.276Z,23.33
2022-09-14T07:54:13.051Z,22.88
2022-09-14T07:56:41.497Z,22.65
2022-09-14T07:59:34.489Z,19.98
2022-09-14T08:02:00.264Z,17.88
2022-09-14T08:04:27.978Z,16.48
2022-09-14T08:06:56.312Z,15.23
2022-09-14T08:09:24.333Z,14.90
2022-09-14T08:11:51.927Z,14.82
2022-09-14T08:14:21.055Z,15.27
2022-09-14T08:16:49.093Z,15.20
2022-09-14T08:19:20.956Z,15.07
2022-09-14T08:21:49.195Z,18.15
2022-09-14T08:24:19.820Z,13.35
2022-09-14T08:26:48.724Z,12.57
2022-09-14T08:29:18.810Z,12.60
2022-09-14T08:31:48.030Z,10.48
2022-09-14T08:34:16.926Z,11.60
2022-09-14T08:36:46.754Z,11.25
2022-09-14T08:39:16.796Z,10.45
2022-09-14T08:41:55.620Z,10.90
2022-09-14T08:44:29.307Z,10.60
2022-09-14T08:47:07.649Z,9.40
2022-09-14T08:49:58.819Z,10.13
2022-09-14T08:52:35.235Z,9.15
2022-09-14T08:55:45.159Z,9.95
2022-09-14T08:58:42.651Z,8.85
2022-09-14T09:01:24.040Z,7.80
2022-09-14T09:04:17.387Z,6.63
2022-09-14T09:06:57.153Z,6.55
2022-09-14T09:09:52.693Z,6.00
2022-09-14T09:12:29.669Z,6.47
2022-09-14T09:15:04.912Z,5.70
2022-09-14T09:17:49.453Z,4.85
2022-09-14T09:20:28.475Z,4.72
2022-09-14T09:23:15.396Z,4.75
2022-09-14T09:26:16.833Z,5.30
2022-09-14T09:28:51.587Z,5.55
2022-09-14T09:31:24.047Z,4.88
2022-09-14T09:34:16.330Z,5.18
2022-09-14T09:36:48.531Z,5.28
2022-09-14T09:39:17.260Z,5.57
2022-09-14T09:42:19.710Z,5.68
2022-09-14T09:45:03.672Z,5.07
2022-09-14T09:47:41.266Z,5.18
2022-09-14T09:50:20.383Z,4.53
2022-09-14T09:52:53.909Z,4.43
2022-09-14T09:55:32.066Z,4.60
2022-09-14T09:58:33.587Z,4.45
2022-09-14T10:01:26.199Z,4.32
2022-09-14T10:04:30.759Z,3.92
2022-09-14T10:06:58.671Z,3.30
2022-09-14T10:09:28.587Z,3.53
2022-09-14T10:12:05.522Z,3.58
2022-09-14T10:14:36.385Z,4.03
2022-09-14T10:17:06.769Z,4.15
2022-09-14T10:19:35.029Z,4.50
2022-09-14T10:22:32.133Z,4.82
2022-09-14T10:25:20.977Z,4.75
2022-09-14T10:27:58.056Z,5.30
2022-09-14T10:30:31.352Z,5.82
2022-09-14T10:33:02.278Z,5.40
2022-09-14T10:35:47.620Z,5.40
2022-09-14T10:38:36.734Z,5.78
2022-09-14T10:41:26.035Z,5.45
2022-09-14T10:44:12.082Z,5.63
2022-09-14T10:47:06.147Z,5.72
2022-09-14T10:49:42.569Z,6.00
2022-09-14T10:52:39.141Z,4.93
2022-09-14T10:55:18.872Z,5.53
2022-09-14T10:57:55.373Z,4.43
2022-09-14T11:00:23.463Z,4.13
2022-09-14T11:03:19.408Z,5.00
2022-09-14T11:06:10.316Z,4.75
2022-09-14T11:09:14.129Z,4.85
2022-09-14T11:12:21.269Z,4.40
2022-09-14T11:14:54.831Z,3.92
2022-09-14T11:17:55.822Z,5.07
2022-09-14T11:20:44.525Z,5.40
2022-09-14T11:23:20.886Z,3.88
2022-09-14T11:26:13.538Z,3.63
2022-09-14T11:28:51.540Z,3.30
2022-09-14T11:31:25.284Z,3.40
2022-09-14T11:34:25.944Z,2.85
2022-09-14T11:37:03.685Z,4.50
2022-09-14T11:39:46.382Z,4.55
2022-09-14T11:42:30.780Z,4.25
2022-09-14T11:45:14.393Z,5.18
2022-09-14T11:47:58.905Z,4.50
2022-09-14T11:50:31.118Z,4.63
2022-09-14T11:53:12.003Z,3.20
2022-09-14T11:55:49.543Z,3.45
2022-09-14T11:58:26.419Z,3.90
2022-09-14T12:01:32.790Z,3.67
2022-09-14T12:04:21.221Z,3.95
2022-09-14T12:06:54.665Z,3.50
2022-09-14T12:09:24.516Z,3.47
2022-09-14T12:11:58.430Z,3.88
2022-09-14T12:17:42.622Z,3.40
2022-09-14T12:20:34.351Z,3.30
2022-09-14T12:23:26.448Z,4.00
2022-09-14T12:26:12.522Z,3.50
2022-09-14T12:28:56.334Z,3.80
2022-09-14T12:31:44.334Z,3.40
2022-09-14T12:34:27.640Z,3.20
2022-09-14T12:36:58.024Z,3.20
2022-09-14T12:39:30.729Z,3.10
2022-09-14T12:42:04.572Z,3.05
2022-09-14T12:44:32.171Z,2.80
2022-09-14T12:47:28.534Z,3.15
2022-09-14T12:49:58.656Z,2.58
2022-09-14T12:52:32.414Z,2.85
2022-09-14T12:55:27.534Z,2.78
2022-09-14T12:58:47.903Z,2.63
2022-09-14T13:01:24.269Z,2.40
2022-09-14T13:03:55.927Z,2.47
2022-09-14T13:06:28.315Z,2.60
2022-09-14T13:08:59.555Z,2.55
2022-09-14T13:11:33.061Z,2.42
2022-09-14T13:14:02.148Z,2.72
2022-09-14T13:16:46.600Z,2.40
2022-09-14T13:19:34.805Z,2.75
2022-09-14T13:22:03.278Z,2.90
2022-09-14T13:24:43.221Z,2.70
2022-09-14T13:27:24.308Z,2.97
2022-09-14T13:30:10.505Z,2.90
2022-09-14T13:32:46.013Z,2.80
2022-09-14T13:35:18.115Z,2.88
2022-09-14T13:37:48.328Z,3.00
2022-09-14T13:40:17.043Z,2.78
2022-09-14T13:42:45.875Z,2.90
2022-09-14T13:45:14.490Z,2.65
2022-09-14T13:47:42.890Z,2.78
2022-09-14T13:50:14.152Z,2.80
2022-09-14T13:53:01.264Z,2.65
2022-09-14T13:55:44.693Z,2.60
2022-09-14T13:58:23.595Z,2.72
2022-09-14T14:01:03.782Z,2.60
2022-09-14T14:03:48.145Z,2.50
2022-09-14T14:09:12.323Z,2.70
2022-09-14T14:11:48.224Z,2.60
2022-09-14T14:14:31.177Z,2.78
2022-09-14T14:17:23.156Z,2.70
2022-09-14T14:19:53.141Z,2.90
2022-09-14T14:22:34.124Z,3.20
2022-09-14T14:25:18.905Z,2.95
2022-09-14T14:27:48.142Z,2.90
2022-09-14T14:30:21.797Z,2.60
2022-09-14T14:32:54.822Z,2.90
2022-09-14T14:35:25.544Z,3.10
2022-09-14T14:37:54.611Z,3.17
2022-09-14T14:40:23.031Z,3.15
2022-09-14T14:42:51.517Z,2.78
2022-09-14T14:45:27.866Z,3.28
2022-09-14T14:47:56.538Z,3.00
2022-09-14T14:50:30.319Z,2.63
2022-09-14T14:52:58.954Z,3.00
2022-09-14T14:55:29.995Z,3.00
2022-09-14T14:58:03.773Z,2.70
2022-09-14T15:00:34.471Z,2.85
2022-09-14T15:03:02.995Z,2.90
2022-09-14T15:05:31.310Z,2.95
2022-09-14T15:07:59.363Z,3.03
2022-09-14T15:10:29.078Z,2.78
2022-09-14T15:12:57.087Z,2.90
2022-09-14T15:15:26.459Z,2.80
2022-09-14T15:17:54.398Z,2.72
2022-09-14T15:20:23.097Z,3.17
2022-09-14T15:22:51.485Z,3.42
2022-09-14T15:25:20.849Z,3.08
2022-09-14T15:27:48.771Z,2.90
2022-09-14T15:30:16.759Z,3.28
2022-09-14T15:32:44.833Z,3.00
2022-09-14T15:35:14.449Z,2.65
2022-09-14T15:37:43.383Z,3.10
2022-09-14T15:40:11.895Z,3.00
2022-09-14T15:42:39.644Z,3.53
2022-09-14T15:45:07.925Z,3.55
2022-09-14T15:47:36.573Z,3.35
2022-09-14T15:50:05.937Z,3.13
2022-09-14T15:52:38.925Z,3.20
2022-09-14T15:55:08.605Z,3.10
2022-09-14T15:57:38.411Z,3.17
2022-09-14T16:00:10.259Z,3.25
2022-09-14T16:02:42.514Z,3.35
2022-09-14T16:05:10.421Z,3.38
2022-09-14T16:07:38.069Z,3.22
2022-09-14T16:10:06.519Z,3.80
2022-09-14T16:12:34.237Z,3.30
2022-09-14T16:15:02.131Z,3.85
2022-09-14T16:17:30.079Z,3.65
2022-09-14T16:19:57.823Z,3.40
2022-09-14T16:22:25.408Z,3.72
2022-09-14T16:24:53.348Z,4.88
2022-09-14T16:27:21.857Z,6.47
2022-09-14T16:29:49.567Z,7.57
2022-09-14T16:32:17.381Z,7.20
2022-09-14T16:34:45.041Z,7.05
2022-09-14T16:37:13.002Z,6.22
2022-09-14T16:39:41.279Z,7.13
2022-09-14T16:42:08.954Z,6.55
2022-09-14T16:44:36.680Z,6.53
2022-09-14T16:47:04.708Z,5.97
2022-09-14T16:49:32.407Z,6.18
2022-09-14T16:52:00.841Z,5.90
2022-09-14T16:54:29.901Z,5.68
2022-09-14T16:56:59.307Z,5.65
2022-09-14T16:59:27.602Z,5.20
2022-09-14T17:01:56.091Z,5.60
2022-09-14T17:04:24.866Z,5.00
2022-09-14T17:06:53.391Z,5.72
2022-09-14T17:09:24.807Z,5.22
2022-09-14T17:11:54.286Z,5.63
2022-09-14T17:14:25.222Z,5.63
2022-09-14T17:16:53.259Z,6.45
2022-09-14T17:19:21.663Z,6.40
2022-09-14T17:21:49.949Z,11.18
2022-09-14T17:24:20.696Z,7.80
2022-09-14T17:26:48.927Z,7.13
2022-09-14T17:29:17.477Z,5.75
2022-09-14T17:31:45.821Z,6.40
2022-09-14T17:34:16.890Z,5.70
2022-09-14T17:36:45.615Z,6.78
2022-09-14T17:39:15.410Z,6.03
2022-09-14T17:41:44.139Z,6.00
2022-09-14T17:44:14.177Z,6.93
2022-09-14T17:46:52.955Z,7.53
2022-09-14T17:49:24.028Z,8.02
2022-09-14T17:51:53.032Z,8.73
2022-09-14T17:54:21.195Z,7.75
2022-09-14T17:56:49.877Z,8.13
2022-09-14T17:59:20.721Z,8.02
2022-09-14T18:01:49.923Z,8.70
2022-09-14T18:04:18.732Z,7.85
2022-09-14T18:06:49.968Z,9.00
2022-09-14T18:09:21.002Z,9.23
2022-09-14T18:11:50.129Z,9.13
2022-09-14T18:14:18.398Z,9.05
2022-09-14T18:16:46.512Z,7.70
2022-09-14T18:19:15.040Z,9.10
2022-09-14T18:21:44.427Z,8.60
2022-09-14T18:24:14.808Z,8.75
2022-09-14T18:26:44.785Z,9.60
2022-09-14T18:29:18.482Z,8.43
2022-09-14T18:31:47.169Z,7.95
2022-09-14T18:34:14.914Z,8.25
2022-09-14T18:36:42.723Z,7.85
2022-09-14T18:39:11.591Z,7.63
2022-09-14T18:41:39.491Z,6.90
2022-09-14T18:44:07.390Z,6.90
2022-09-14T18:46:35.287Z,6.65
2022-09-14T18:49:03.282Z,7.35
2022-09-14T18:51:32.674Z,6.28
2022-09-14T18:54:05.050Z,6.82
2022-09-14T18:56:34.095Z,6.45
2022-09-14T18:59:03.395Z,7.20
2022-09-14T19:01:31.439Z,7.22
2022-09-14T19:04:01.448Z,8.27
2022-09-14T19:06:29.764Z,7.40
2022-09-14T19:08:58.415Z,7.65
2022-09-14T19:11:29.494Z,8.23
2022-09-14T19:14:02.723Z,7.47
2022-09-14T19:16:31.289Z,7.47
2022-09-14T19:18:59.830Z,8.45
2022-09-14T19:21:30.793Z,7.40
2022-09-14T19:24:05.008Z,8.40
2022-09-14T19:26:39.982Z,9.00
2022-09-14T19:29:10.715Z,11.65
2022-09-14T19:31:39.116Z,11.30
2022-09-14T19:34:07.285Z,10.40
2022-09-14T19:36:35.566Z,11.77
2022-09-14T19:39:04.833Z,11.90
2022-09-14T19:41:33.882Z,11.15
2022-09-14T19:44:03.177Z,10.77
2022-09-14T19:46:31.364Z,10.18
2022-09-14T19:48:59.470Z,10.55
2022-09-14T19:51:30.242Z,13.32
2022-09-14T19:54:00.552Z,16.08
2022-09-14T19:56:31.010Z,15.90
2022-09-14T19:59:01.129Z,16.77
2022-09-14T20:01:32.072Z,18.38
2022-09-14T20:04:00.295Z,26.75
2022-09-14T20:06:31.814Z,36.80
2022-09-14T20:09:04.047Z,32.75
2022-09-14T20:11:34.548Z,16.95
2022-09-14T20:14:04.970Z,17.52
2022-09-14T20:16:36.561Z,20.15
2022-09-14T20:19:08.950Z,18.35
2022-09-14T20:21:37.661Z,16.92
2022-09-14T20:24:17.066Z,16.70
2022-09-14T20:26:48.140Z,17.13
2022-09-14T20:29:18.033Z,16.55
2022-09-14T20:31:48.170Z,19.65
2022-09-14T20:34:19.662Z,18.02
2022-09-14T20:36:50.022Z,18.90
2022-09-14T20:39:18.966Z,17.48
2022-09-14T20:41:47.194Z,16.55
2022-09-14T20:44:15.880Z,16.83
2022-09-14T20:46:45.122Z,17.10
2022-09-14T20:49:15.727Z,19.52
2022-09-14T20:51:44.309Z,18.17
2022-09-14T20:54:14.268Z,19.00
2022-09-14T20:56:42.821Z,18.83
2022-09-14T20:59:13.956Z,20.17
2022-09-14T21:01:43.981Z,18.50
2022-09-14T21:04:14.586Z,18.70
2022-09-14T21:06:45.529Z,19.17
2022-09-14T21:09:15.055Z,19.98
2022-09-14T21:11:45.838Z,21.08
2022-09-14T21:14:16.060Z,21.65
2022-09-14T21:16:46.189Z,18.70
2022-09-14T21:19:19.550Z,19.05
2022-09-14T21:24:18.948Z,18.75
2022-09-14T21:26:47.219Z,17.35
2022-09-14T21:29:20.894Z,19.60
2022-09-14T21:31:48.973Z,20.23
2022-09-14T21:34:17.249Z,21.50
2022-09-14T21:36:47.263Z,21.92
2022-09-14T21:39:19.329Z,20.95
2022-09-14T21:41:49.027Z,19.70
2022-09-14T21:44:17.045Z,18.48
2022-09-14T21:46:44.891Z,14.40
2022-09-14T21:49:17.623Z,14.65
2022-09-14T21:51:49.197Z,14.70
2022-09-14T21:54:17.059Z,13.60
2022-09-14T21:56:47.020Z,12.82
2022-09-14T21:59:17.713Z,14.88
2022-09-14T22:01:49.313Z,13.30
2022-09-14T22:04:22.879Z,13.32
2022-09-14T22:06:51.962Z,13.80
2022-09-14T22:09:21.899Z,13.65
2022-09-14T22:11:49.630Z,13.40
2022-09-14T22:14:20.763Z,13.50
2022-09-14T22:16:49.138Z,13.35
2022-09-14T22:19:21.544Z,13.20
2022-09-14T22:21:51.011Z,14.40
2022-09-14T22:24:23.079Z,17.20
2022-09-14T22:26:51.271Z,16.27
2022-09-14T22:29:19.470Z,14.65
2022-09-14T22:31:47.598Z,15.32
2022-09-14T22:34:16.549Z,18.13
2022-09-14T22:36:44.529Z,19.17
2022-09-14T22:39:12.686Z,20.00
2022-09-14T22:41:41.111Z,20.65
2022-09-14T22:44:09.338Z,19.30
2022-09-14T22:46:37.427Z,17.42
2022-09-14T22:49:05.318Z,18.23
2022-09-14T22:51:33.933Z,15.30
2022-09-14T22:54:02.222Z,14.43
2022-09-14T22:56:33.006Z,14.13
2022-09-14T22:59:03.353Z,15.05
2022-09-14T23:01:33.970Z,14.90
2022-09-14T23:04:04.821Z,14.43
2022-09-14T23:06:50.972Z,14.77
2022-09-14T23:09:22.032Z,15.73
2022-09-14T23:11:50.140Z,15.75
2022-09-14T23:14:17.859Z,15.95
2022-09-14T23:16:45.951Z,15.82
2022-09-14T23:19:18.198Z,16.15
2022-09-14T23:21:46.349Z,15.43
2022-09-14T23:24:14.754Z,15.63
2022-09-14T23:26:42.952Z,17.02
2022-09-14T23:29:15.238Z,17.67
2022-09-14T23:31:43.115Z,18.10
2022-09-14T23:34:10.778Z,17.60
2022-09-14T23:36:38.508Z,16.65
2022-09-14T23:39:06.486Z,16.90
2022-09-14T23:41:34.152Z,18.17
2022-09-14T23:44:02.010Z,17.33
2022-09-14T23:46:29.981Z,18.45
2022-09-14T23:48:57.863Z,17.20
2022-09-14T23:51:25.601Z,17.25
2022-09-14T23:53:53.570Z,19.15
2022-09-14T23:56:21.567Z,18.02
2022-09-14T23:58:49.253Z,18.00
